Time;durP1;ratioP1;P1;durP2;ratioP2;P2;SDS_P1;SDS_P2;PMS_P1;PMS_P2;Temp;Humidity;BMP_temperature;BMP_pressure;BME280_temperature;BME280_humidity;BME280_pressure;Samples;Min_cycle;Max_cycle;Signal;HPM_P1;HPM_P2
2022/09/01 00:00:37;;;;;;;6.60;1.40;;;;;;;13.14;83.01;100816.15;105785;1271;22534;-53
2022/09/01 00:03:09;;;;;;;7.00;1.80;;;;;;;13.12;83.28;100814.84;105631;1273;24400;-53
2022/09/01 00:05:41;;;;;;;6.30;1.40;;;;;;;13.10;83.53;100819.25;105815;1273;22546;-56
2022/09/01 00:08:13;;;;;;;8.10;1.40;;;;;;;13.10;83.43;100819.09;105523;1273;22556;-54
2022/09/01 00:10:45;;;;;;;7.50;1.60;;;;;;;13.10;83.51;100821.42;105555;1273;22544;-53
2022/09/01 00:13:17;;;;;;;8.30;1.50;;;;;;;13.10;83.42;100821.42;105587;1273;22655;-54
2022/09/01 00:15:48;;;;;;;7.50;1.50;;;;;;;13.09;83.61;100820.14;105581;1271;26499;-56
2022/09/01 00:18:19;;;;;;;9.00;1.50;;;;;;;13.11;83.65;100821.52;105548;1273;22555;-53
2022/09/01 00:20:51;;;;;;;8.10;1.50;;;;;;;13.12;83.65;100821.88;105583;1273;22616;-52
2022/09/01 00:23:23;;;;;;;6.90;1.50;;;;;;;13.11;83.87;100822.32;105609;1273;24224;-54
2022/09/01 00:25:54;;;;;;;9.50;1.80;;;;;;;13.12;83.83;100820.41;105619;1273;24223;-52
2022/09/01 00:28:26;;;;;;;8.00;1.50;;;;;;;13.16;83.87;100822.52;105614;1273;25259;-54
2022/09/01 00:30:58;;;;;;;5.70;1.40;;;;;;;13.19;84.03;100822.27;105784;1273;25158;-54
2022/09/01 00:33:29;;;;;;;5.70;1.30;;;;;;;13.21;84.02;100820.34;105983;1273;26558;-53
2022/09/01 00:36:01;;;;;;;6.40;1.20;;;;;;;13.21;83.77;100819.69;105609;1273;22542;-54
2022/09/01 00:38:34;;;;;;;9.50;1.40;;;;;;;13.22;83.69;100820.16;105616;1273;25342;-52
2022/09/01 00:41:06;;;;;;;4.70;1.00;;;;;;;13.25;83.93;100819.77;105711;1273;25266;-50
2022/09/01 00:43:43;;;;;;;10.50;1.40;;;;;;;13.26;83.99;100816.84;105600;1273;24303;-53
2022/09/01 00:46:17;;;;;;;7.60;1.20;;;;;;;13.29;83.94;100819.58;105523;1273;25320;-52
2022/09/01 00:48:51;;;;;;;5.00;1.10;;;;;;;13.32;83.94;100818.05;105732;1273;26273;-57
2022/09/01 00:51:23;;;;;;;7.30;1.10;;;;;;;13.34;83.92;100815.79;105609;1273;24266;-53
2022/09/01 00:53:56;;;;;;;5.10;0.90;;;;;;;13.32;84.07;100811.38;105682;1273;22537;-50
2022/09/01 00:56:29;;;;;;;6.70;1.00;;;;;;;13.29;84.00;100807.48;105583;1273;23554;-56
2022/09/01 00:59:02;;;;;;;5.00;1.10;;;;;;;13.25;84.03;100811.20;105659;1273;24158;-53
2022/09/01 01:01:35;;;;;;;7.30;1.20;;;;;;;13.23;84.14;100808.67;105631;1273;24275;-51
2022/09/01 01:04:13;;;;;;;5.30;1.60;;;;;;;13.23;84.18;100803.87;105614;1273;22588;-56
2022/09/01 01:06:57;;;;;;;6.50;1.40;;;;;;;13.22;84.41;100803.34;105757;1273;24288;-53
2022/09/01 01:09:30;;;;;;;8.80;1.90;;;;;;;13.23;84.39;100801.94;104588;1273;1429309;-52
2022/09/01 01:12:05;;;;;;;7.60;1.20;;;;;;;13.24;84.39;100798.88;105655;1273;22581;-53
2022/09/01 01:14:38;;;;;;;8.90;1.50;;;;;;;13.24;84.50;100799.95;105612;1273;25195;-51
2022/09/01 01:17:10;;;;;;;7.30;1.30;;;;;;;13.26;84.62;100801.17;105581;1273;22570;-54
2022/09/01 01:25:35;;;;;;;7.90;1.50;;;;;;;13.28;84.81;100798.62;105573;1273;25431;-54
2022/09/01 01:28:10;;;;;;;7.20;1.20;;;;;;;13.28;84.82;100798.05;105665;1273;25178;-54
2022/09/01 01:30:49;;;;;;;6.90;1.20;;;;;;;13.29;84.64;100804.37;105585;1273;22544;-54
2022/09/01 01:33:24;;;;;;;7.50;1.30;;;;;;;13.31;84.93;100803.29;105548;1273;22534;-51
2022/09/01 01:35:56;;;;;;;7.30;1.30;;;;;;;13.32;85.06;100801.67;105935;1273;25257;-54
2022/09/01 01:38:29;;;;;;;4.40;1.00;;;;;;;13.32;84.99;100802.75;105932;1273;25307;-52
2022/09/01 01:41:00;;;;;;;6.80;1.10;;;;;;;13.31;84.86;100805.43;105703;1273;22548;-50
2022/09/01 01:43:32;;;;;;;6.20;1.30;;;;;;;13.32;85.23;100805.45;105541;1273;22579;-52
2022/09/01 01:46:07;;;;;;;10.30;1.50;;;;;;;13.31;85.14;100804.37;105586;1273;22538;-54
2022/09/01 01:48:41;;;;;;;5.70;1.40;;;;;;;13.30;85.06;100804.61;105735;1273;23299;-54
2022/09/01 01:51:12;;;;;;;6.60;1.40;;;;;;;13.29;85.04;100801.73;105680;1273;22997;-52
2022/09/01 01:53:46;;;;;;;6.90;1.10;;;;;;;13.29;85.14;100800.10;105601;1273;22541;-53
2022/09/01 01:56:17;;;;;;;5.90;1.10;;;;;;;13.29;85.18;100793.84;105670;1272;24261;-55
2022/09/01 01:58:52;;;;;;;7.30;1.20;;;;;;;13.30;85.39;100793.61;105567;1273;22575;-54
2022/09/01 02:01:27;;;;;;;10.70;1.50;;;;;;;13.31;85.29;100792.69;105564;1273;25629;-54
2022/09/01 02:03:59;;;;;;;6.00;1.10;;;;;;;13.32;85.29;100793.77;105626;1273;24261;-53
2022/09/01 02:06:35;;;;;;;8.10;1.30;;;;;;;13.33;85.45;100795.29;105798;1271;22864;-55
2022/09/01 02:09:08;;;;;;;9.50;1.40;;;;;;;13.35;85.68;100796.02;105633;1273;24277;-52
2022/09/01 02:11:40;;;;;;;7.20;1.10;;;;;;;13.35;85.61;100790.47;105677;1273;25456;-54
2022/09/01 02:14:12;;;;;;;6.00;0.90;;;;;;;13.35;85.84;100788.06;105702;1273;22531;-55
2022/09/01 02:16:43;;;;;;;6.00;0.90;;;;;;;13.35;85.74;100791.98;105654;1273;23203;-53
2022/09/01 02:19:18;;;;;;;6.90;1.40;;;;;;;13.36;85.68;100791.45;105730;1273;22536;-52
2022/09/01 02:21:53;;;;;;;6.50;1.10;;;;;;;13.37;85.78;100788.83;105961;1273;24023;-54
2022/09/01 02:24:25;;;;;;;5.60;1.20;;;;;;;13.38;85.64;100792.71;106406;1262;24363;-72
2022/09/01 02:26:58;;;;;;;6.90;1.30;;;;;;;13.40;85.69;100792.59;105850;1271;22708;-69
2022/09/01 02:29:29;;;;;;;8.90;1.60;;;;;;;13.41;85.84;100791.17;105899;1271;22589;-70
2022/09/01 02:32:00;;;;;;;7.50;1.30;;;;;;;13.41;85.80;100785.66;106867;1271;22553;-70
2022/09/01 02:34:33;;;;;;;10.90;1.30;;;;;;;13.40;85.86;100780.86;106439;1271;22594;-72
2022/09/01 02:37:05;;;;;;;6.90;1.30;;;;;;;13.40;85.76;100782.96;106367;1273;22567;-70
2022/09/01 02:39:36;;;;;;;8.60;1.30;;;;;;;13.40;85.57;100782.03;106361;1271;22700;-70
2022/09/01 02:42:09;;;;;;;8.80;1.10;;;;;;;13.40;85.74;100784.33;106314;1271;22557;-69
2022/09/01 02:44:42;;;;;;;14.80;1.80;;;;;;;13.40;85.80;100793.15;106243;1273;24066;-70
2022/09/01 02:47:14;;;;;;;16.40;1.70;;;;;;;13.40;85.90;100790.08;106217;1271;22551;-71
2022/09/01 02:49:46;;;;;;;8.20;1.70;;;;;;;13.41;85.85;100788.83;106126;1273;22795;-70
2022/09/01 02:52:19;;;;;;;8.20;1.30;;;;;;;13.42;85.54;100785.28;106411;1273;26375;-69
2022/09/01 02:54:50;;;;;;;5.20;1.00;;;;;;;13.43;85.82;100788.59;105934;1273;24265;-70
2022/09/01 02:57:23;;;;;;;5.10;1.10;;;;;;;13.44;85.72;100792.70;105797;1273;22563;-69
2022/09/01 02:59:57;;;;;;;16.70;1.10;;;;;;;13.45;85.57;100789.11;105784;1273;22553;-70
2022/09/01 03:02:30;;;;;;;5.90;1.20;;;;;;;13.45;85.72;100789.30;105699;1273;26450;-68
2022/09/01 03:05:01;;;;;;;7.00;0.80;;;;;;;13.47;85.70;100791.77;105663;1273;24369;-70
2022/09/01 03:07:33;;;;;;;4.40;1.10;;;;;;;13.48;85.53;100789.40;105775;1273;22660;-70
2022/09/01 03:10:08;;;;;;;8.30;1.10;;;;;;;13.50;85.62;100793.06;105909;1273;22537;-69
2022/09/01 03:12:39;;;;;;;7.10;1.10;;;;;;;13.51;85.58;100793.42;105809;1273;25328;-68
2022/09/01 03:15:12;;;;;;;9.30;1.60;;;;;;;13.51;85.37;100791.48;106456;1273;22540;-70
2022/09/01 03:17:44;;;;;;;6.00;0.90;;;;;;;13.52;85.54;100787.67;105812;1273;22537;-70
2022/09/01 03:20:16;;;;;;;6.00;1.00;;;;;;;13.53;85.48;100783.58;105730;1273;22544;-69
2022/09/01 03:22:48;;;;;;;7.30;1.80;;;;;;;13.55;85.47;100784.15;106117;1273;22537;-69
2022/09/01 03:25:20;;;;;;;9.30;1.00;;;;;;;13.56;85.27;100786.67;106201;1273;24396;-70
2022/09/01 03:27:51;;;;;;;9.10;1.00;;;;;;;13.58;85.18;100786.95;106081;1273;22547;-70
2022/09/01 03:30:23;;;;;;;4.70;1.00;;;;;;;13.57;85.57;100791.27;106151;1273;25066;-69
2022/09/01 03:32:54;;;;;;;7.60;1.40;;;;;;;13.59;85.22;100794.83;105691;1273;22537;-70
2022/09/01 03:35:27;;;;;;;4.80;1.00;;;;;;;13.59;85.25;100795.64;105655;1273;22642;-70
2022/09/01 03:37:59;;;;;;;6.10;1.00;;;;;;;13.60;85.27;100793.63;105850;1273;22532;-69
2022/09/01 03:40:33;;;;;;;6.00;1.20;;;;;;;13.61;85.43;100796.69;105767;1273;22737;-70
2022/09/01 03:43:08;;;;;;;7.40;1.20;;;;;;;13.60;85.24;100795.20;105827;1273;22524;-69
2022/09/01 03:45:41;;;;;;;9.60;1.40;;;;;;;13.61;85.27;100793.80;105759;1273;24231;-69
2022/09/01 03:48:15;;;;;;;5.40;1.20;;;;;;;13.61;85.49;100795.23;105744;1273;22531;-70
2022/09/01 03:50:50;;;;;;;6.60;1.30;;;;;;;13.62;85.31;100793.54;105637;1273;24332;-69
2022/09/01 03:53:26;;;;;;;10.20;1.40;;;;;;;13.61;85.54;100793.02;105785;1273;22535;-71
2022/09/01 03:55:57;;;;;;;7.20;1.40;;;;;;;13.61;85.57;100792.01;105803;1273;22560;-69
2022/09/01 03:58:28;;;;;;;6.60;1.40;;;;;;;13.62;85.46;100793.45;106276;1273;24368;-69
2022/09/01 04:01:01;;;;;;;9.50;1.20;;;;;;;13.63;85.45;100796.02;106167;1273;24582;-69
2022/09/01 04:03:34;;;;;;;5.20;1.10;;;;;;;13.62;85.35;100805.12;105834;1272;24384;-69
2022/09/01 04:06:07;;;;;;;8.30;1.40;;;;;;;13.61;85.59;100805.77;105804;1273;22704;-71
2022/09/01 04:08:39;;;;;;;7.90;1.10;;;;;;;13.59;85.41;100804.42;105815;1273;25316;-69
2022/09/01 04:11:17;;;;;;;7.60;1.40;;;;;;;13.59;85.49;100804.42;105993;1273;22703;-71
2022/09/01 04:13:48;;;;;;;8.50;1.60;;;;;;;13.58;85.77;100805.59;105660;1273;25222;-71
2022/09/01 04:19:23;;;;;;;8.70;1.60;;;;;;;13.57;85.75;100800.51;105772;1273;22528;-70
2022/09/01 04:21:58;;;;;;;8.40;1.70;;;;;;;13.57;85.76;100801.23;105738;1273;22645;-69
2022/09/01 04:24:33;;;;;;;6.50;1.70;;;;;;;13.58;85.90;100798.22;106046;1272;24038;-72
2022/09/01 04:27:06;;;;;;;9.10;1.40;;;;;;;13.58;85.89;100800.31;106652;1271;23516;-70
2022/09/01 04:29:38;;;;;;;8.00;1.50;;;;;;;13.57;85.84;100801.38;106275;1272;22740;-69
2022/09/01 04:32:11;;;;;;;5.40;1.20;;;;;;;13.56;86.03;100801.06;106120;1273;23091;-69
2022/09/01 04:34:43;;;;;;;10.10;1.50;;;;;;;13.56;86.10;100800.65;106326;1273;23677;-66
2022/09/01 04:37:17;;;;;;;8.40;1.40;;;;;;;13.57;85.97;100801.27;105603;1273;22621;-69
2022/09/01 04:39:53;;;;;;;10.90;1.60;;;;;;;13.57;85.90;100801.38;105746;1272;25255;-69
2022/09/01 04:42:27;;;;;;;14.10;1.70;;;;;;;13.57;86.05;100797.86;105714;1272;22613;-70
2022/09/01 04:45:00;;;;;;;8.90;1.50;;;;;;;13.58;86.05;100803.74;105790;1273;22557;-69
2022/09/01 04:47:32;;;;;;;9.80;1.60;;;;;;;13.60;86.31;100802.54;105634;1271;22532;-70
2022/09/01 04:50:12;;;;;;;22.40;2.70;;;;;;;13.61;86.30;100801.59;105904;1271;24396;-68
2022/09/01 04:52:44;;;;;;;13.40;1.80;;;;;;;13.61;86.13;100801.55;105916;1271;22594;-69
2022/09/01 04:55:17;;;;;;;14.20;1.90;;;;;;;13.63;86.24;100797.70;105762;1273;22537;-69
2022/09/01 04:57:50;;;;;;;11.00;1.70;;;;;;;13.64;86.21;100800.83;105874;1271;25369;-71
2022/09/01 05:00:24;;;;;;;10.40;1.60;;;;;;;13.67;86.39;100802.14;105854;1272;23195;-71
2022/09/01 05:03:03;;;;;;;9.70;1.60;;;;;;;13.70;86.25;100802.24;105659;1271;22590;-68
2022/09/01 05:05:43;;;;;;;8.50;2.00;;;;;;;13.72;86.27;100808.75;105878;1272;22522;-68
2022/09/01 05:08:17;;;;;;;8.50;1.50;;;;;;;13.74;86.41;100806.39;105824;1272;23108;-69
2022/09/01 05:10:51;;;;;;;12.30;1.40;;;;;;;13.76;86.49;100807.02;105741;1271;22551;-71
2022/09/01 05:13:23;;;;;;;9.30;1.50;;;;;;;13.78;86.43;100807.01;105709;1271;22597;-69
2022/09/01 05:16:05;;;;;;;10.80;2.40;;;;;;;13.81;86.60;100811.34;105959;1271;25585;-68
2022/09/01 05:18:41;;;;;;;8.60;1.40;;;;;;;13.84;86.69;100812.71;105694;1271;22690;-68
2022/09/01 05:21:15;;;;;;;10.70;2.30;;;;;;;13.86;86.57;100814.73;105692;1273;24398;-69
2022/09/01 05:23:50;;;;;;;11.70;1.50;;;;;;;13.89;86.67;100813.70;105805;1271;22695;-69
2022/09/01 05:26:24;;;;;;;7.50;1.60;;;;;;;13.92;86.72;100815.31;105696;1271;25366;-71
2022/09/01 05:28:59;;;;;;;9.20;1.60;;;;;;;13.94;86.76;100814.69;105786;1271;25326;-70
2022/09/01 05:31:36;;;;;;;13.60;2.10;;;;;;;13.97;86.86;100808.00;105879;1273;22556;-70
2022/09/01 05:34:09;;;;;;;8.20;1.60;;;;;;;14.01;86.98;100807.45;105743;1271;22989;-72
2022/09/01 05:36:45;;;;;;;7.50;1.90;;;;;;;14.04;86.77;100809.22;105765;1273;22558;-69
2022/09/01 05:39:16;;;;;;;10.80;1.80;;;;;;;14.07;86.58;100809.21;105813;1273;25572;-69
2022/09/01 05:41:49;;;;;;;10.30;1.40;;;;;;;14.09;86.73;100812.30;105836;1271;24224;-72
2022/09/01 05:44:21;;;;;;;11.10;2.20;;;;;;;14.12;86.75;100817.71;106273;1271;22693;-69
2022/09/01 05:46:54;;;;;;;10.50;1.90;;;;;;;14.17;86.82;100818.48;105740;1273;24256;-69
2022/09/01 05:49:27;;;;;;;12.50;1.60;;;;;;;14.19;86.82;100824.86;105804;1273;22716;-69
2022/09/01 05:51:59;;;;;;;9.10;1.80;;;;;;;14.24;86.78;100823.63;105788;1273;22575;-70
2022/09/01 05:54:31;;;;;;;8.50;1.70;;;;;;;14.25;86.61;100823.14;105932;1271;22547;-70
2022/09/01 05:57:02;;;;;;;11.00;1.70;;;;;;;14.27;86.60;100825.16;105840;1273;25295;-69
2022/09/01 05:59:34;;;;;;;11.40;1.20;;;;;;;14.32;86.58;100825.80;106120;1271;23140;-71
2022/09/01 06:02:08;;;;;;;6.80;1.30;;;;;;;14.35;85.93;100829.17;106106;1271;24032;-69
2022/09/01 06:04:42;;;;;;;7.40;1.10;;;;;;;14.38;86.28;100829.58;105726;1271;25328;-70
2022/09/01 06:07:17;;;;;;;6.60;1.30;;;;;;;14.41;85.90;100833.20;105636;1271;25440;-71
2022/09/01 06:09:50;;;;;;;4.80;1.00;;;;;;;14.46;85.94;100837.95;105930;1271;24446;-72
2022/09/01 06:12:23;;;;;;;4.10;1.10;;;;;;;14.49;85.73;100837.33;106218;1272;24360;-69
2022/09/01 06:14:56;;;;;;;6.20;1.40;;;;;;;14.52;85.61;100836.55;105881;1272;24291;-69
2022/09/01 06:17:29;;;;;;;12.30;1.30;;;;;;;14.55;85.26;100838.06;105878;1272;24311;-69
2022/09/01 06:20:09;;;;;;;10.60;1.40;;;;;;;14.59;85.59;100831.06;105793;1273;22737;-70
2022/09/01 06:22:42;;;;;;;6.90;1.30;;;;;;;14.67;85.70;100830.79;105767;1271;22688;-69
2022/09/01 06:25:16;;;;;;;5.60;1.20;;;;;;;14.73;85.56;100830.41;105649;1271;23212;-69
2022/09/01 06:27:48;;;;;;;6.40;1.20;;;;;;;14.79;85.25;100829.65;105835;1273;22529;-69
2022/09/01 06:30:25;;;;;;;6.40;1.20;;;;;;;14.82;84.70;100832.77;106215;1271;22528;-70
2022/09/01 06:32:57;;;;;;;4.40;1.00;;;;;;;14.85;84.76;100834.59;105994;1271;22646;-69
2022/09/01 06:35:29;;;;;;;6.20;1.00;;;;;;;14.89;84.61;100836.32;105617;1271;25404;-68
2022/09/01 06:38:01;;;;;;;6.80;1.10;;;;;;;14.95;84.31;100839.60;106442;1273;22826;-71
2022/09/01 06:40:34;;;;;;;5.20;1.20;;;;;;;15.01;84.22;100840.42;105789;1271;25365;-70
2022/09/01 06:43:06;;;;;;;5.80;1.10;;;;;;;15.07;84.16;100840.75;106020;1271;22494;-69
2022/09/01 06:45:43;;;;;;;7.30;1.10;;;;;;;15.13;84.06;100841.64;105755;1271;25315;-70
2022/09/01 06:48:16;;;;;;;8.90;1.40;;;;;;;15.20;83.85;100847.33;105691;1273;22736;-69
2022/09/01 06:50:48;;;;;;;6.60;0.90;;;;;;;15.26;83.64;100851.21;105724;1271;22711;-70
2022/09/01 06:53:20;;;;;;;4.40;1.00;;;;;;;15.32;83.49;100848.83;105912;1272;22519;-70
2022/09/01 06:55:52;;;;;;;10.70;1.00;;;;;;;15.38;83.44;100848.92;105886;1271;23525;-69
2022/09/01 06:58:24;;;;;;;5.20;1.10;;;;;;;15.42;82.60;100850.55;105766;1273;26651;-70
2022/09/01 07:00:56;;;;;;;3.20;0.90;;;;;;;15.46;83.08;100845.91;105728;1272;25037;-70
2022/09/01 07:03:28;;;;;;;4.60;0.90;;;;;;;15.52;82.84;100844.63;105853;1273;25382;-70
2022/09/01 07:05:59;;;;;;;6.70;1.10;;;;;;;15.56;82.45;100848.61;105897;1273;25378;-72
2022/09/01 07:08:32;;;;;;;8.30;0.90;;;;;;;15.62;82.25;100856.13;105797;1273;25665;-69
2022/09/01 07:11:05;;;;;;;3.60;0.70;;;;;;;15.69;82.11;100856.17;105621;1272;25953;-70
2022/09/01 07:13:39;;;;;;;6.60;0.80;;;;;;;15.74;81.22;100856.93;105829;1273;26202;-70
2022/09/01 07:16:17;;;;;;;4.10;0.60;;;;;;;15.78;81.29;100857.33;105670;1271;24098;-70
2022/09/01 07:18:48;;;;;;;4.20;0.60;;;;;;;15.83;80.97;100856.04;105872;1271;24447;-73
2022/09/01 07:21:21;;;;;;;4.50;0.60;;;;;;;15.87;80.62;100860.67;105900;1272;26485;-69
2022/09/01 07:23:53;;;;;;;4.80;0.70;;;;;;;15.92;80.53;100858.71;107947;1272;25411;-69
2022/09/01 07:26:26;;;;;;;4.40;0.70;;;;;;;15.98;79.65;100859.41;106361;1272;22691;-70
2022/09/01 07:28:58;;;;;;;2.50;0.60;;;;;;;16.00;78.79;100857.08;106393;1271;22621;-70
2022/09/01 07:31:34;;;;;;;6.50;0.60;;;;;;;16.03;78.71;100859.70;106419;1271;24292;-71
2022/09/01 07:34:12;;;;;;;6.30;1.20;;;;;;;16.07;78.68;100861.13;106415;1273;23563;-73
2022/09/01 07:36:45;;;;;;;5.10;0.70;;;;;;;16.13;78.80;100859.88;106300;1271;22610;-70
2022/09/01 07:39:16;;;;;;;4.40;0.60;;;;;;;16.16;77.81;100863.58;106422;1273;23418;-70
2022/09/01 07:41:48;;;;;;;13.70;1.70;;;;;;;16.19;77.64;100862.63;106325;1271;23362;-73
2022/09/01 07:44:20;;;;;;;9.20;1.30;;;;;;;16.25;77.55;100865.37;106335;1272;26679;-70
2022/09/01 07:46:51;;;;;;;6.30;1.60;;;;;;;16.30;77.59;100868.17;106183;1271;22653;-69
2022/09/01 07:49:24;;;;;;;5.00;0.60;;;;;;;16.33;77.44;100869.77;106219;1273;22706;-69
2022/09/01 07:51:57;;;;;;;4.10;0.50;;;;;;;16.36;77.10;100869.17;106367;1273;24001;-69
2022/09/01 07:54:29;;;;;;;2.00;0.40;;;;;;;16.39;76.66;100865.30;106246;1272;25303;-69
2022/09/01 07:57:00;;;;;;;2.20;0.50;;;;;;;16.42;76.24;100868.14;106302;1271;26113;-70
2022/09/01 07:59:32;;;;;;;4.20;0.40;;;;;;;16.47;76.21;100866.63;106213;1271;22617;-70
2022/09/01 08:02:05;;;;;;;1.90;0.40;;;;;;;16.52;76.02;100867.34;106201;1272;22479;-70
2022/09/01 08:04:38;;;;;;;4.80;0.60;;;;;;;16.56;75.88;100867.11;105562;1271;24305;-71
2022/09/01 08:07:11;;;;;;;5.60;0.50;;;;;;;16.60;75.49;100866.77;105729;1271;24537;-70
2022/09/01 08:09:43;;;;;;;3.00;0.40;;;;;;;16.64;75.45;100869.20;106296;1273;22523;-69
2022/09/01 08:12:15;;;;;;;3.10;0.60;;;;;;;16.67;75.15;100868.95;106262;1273;22890;-71
2022/09/01 08:14:51;;;;;;;4.60;0.40;;;;;;;16.69;74.79;100867.77;106306;1273;24905;-71
2022/09/01 08:17:23;;;;;;;1.80;0.30;;;;;;;16.74;74.82;100872.61;106311;1271;22560;-71
2022/09/01 08:19:54;;;;;;;3.70;0.50;;;;;;;16.75;73.55;100874.63;106320;1273;22541;-71
2022/09/01 08:22:25;;;;;;;3.10;0.30;;;;;;;16.74;73.06;100874.41;106244;1271;22620;-70
2022/09/01 08:24:57;;;;;;;1.50;0.40;;;;;;;16.78;72.49;100875.80;106192;1271;25314;-70
2022/09/01 08:27:29;;;;;;;2.80;0.40;;;;;;;16.85;72.88;100872.40;106169;1271;25273;-69
2022/09/01 08:30:00;;;;;;;4.00;0.50;;;;;;;16.89;72.39;100876.31;106225;1271;22523;-70
2022/09/01 08:32:32;;;;;;;2.60;0.40;;;;;;;16.95;72.10;100872.59;106280;1271;22553;-69
2022/09/01 08:35:04;;;;;;;2.80;0.40;;;;;;;17.01;71.81;100870.25;106246;1271;22580;-72
2022/09/01 08:37:36;;;;;;;4.80;0.40;;;;;;;17.07;72.06;100868.77;106248;1271;22630;-70
2022/09/01 08:40:12;;;;;;;2.80;0.30;;;;;;;17.13;71.46;100871.25;106207;1271;22549;-72
2022/09/01 08:42:55;;;;;;;3.40;0.30;;;;;;;17.16;70.67;100876.90;106476;1271;22567;-70
2022/09/01 08:45:32;;;;;;;5.10;0.60;;;;;;;17.23;70.20;100871.88;106621;1271;25299;-70
2022/09/01 08:48:14;;;;;;;3.80;0.50;;;;;;;17.33;70.31;100871.55;106248;1271;25349;-70
2022/09/01 08:50:51;;;;;;;2.10;0.50;;;;;;;17.37;70.43;100871.25;106222;1271;22668;-74
2022/09/01 08:53:29;;;;;;;3.10;0.30;;;;;;;17.40;70.40;100868.44;106294;1271;25686;-70
2022/09/01 08:56:01;;;;;;;2.30;0.40;;;;;;;17.43;70.28;100870.23;106317;1271;22684;-69
2022/09/01 08:58:33;;;;;;;1.30;0.30;;;;;;;17.47;69.28;100872.65;106226;1271;22551;-70
2022/09/01 09:01:09;;;;;;;3.50;0.50;;;;;;;17.50;69.29;100872.66;106236;1271;23178;-69
2022/09/01 09:03:50;;;;;;;5.80;1.60;;;;;;;17.54;69.39;100871.66;106395;1271;22550;-68
2022/09/01 09:06:21;;;;;;;;;;;;;;;17.60;69.25;100866.53;106494;1271;22555;-68
2022/09/01 09:09:02;;;;;;;1.60;0.40;;;;;;;17.63;68.71;100873.05;105825;1273;22538;-68
2022/09/01 09:12:14;;;;;;;2.60;0.40;;;;;;;17.65;68.80;100874.95;105955;1271;24121;-68
2022/09/01 09:15:08;;;;;;;2.80;0.40;;;;;;;17.68;68.43;100877.32;106003;1271;22559;-68
2022/09/01 09:17:52;;;;;;;3.00;0.50;;;;;;;17.69;68.79;100876.45;105618;1271;25571;-65
2022/09/01 09:20:24;;;;;;;5.10;0.40;;;;;;;17.71;68.14;100878.48;105675;1271;22528;-66
2022/09/01 09:22:56;;;;;;;6.00;0.60;;;;;;;17.69;68.38;100877.01;105911;1271;22551;-66
2022/09/01 09:25:30;;;;;;;3.10;0.50;;;;;;;17.70;68.68;100877.62;105649;1271;25377;-66
2022/09/01 09:28:02;;;;;;;5.30;0.60;;;;;;;17.71;68.73;100873.67;106044;1271;25857;-67
2022/09/01 09:30:34;;;;;;;5.10;0.60;;;;;;;17.74;68.66;100870.08;105654;1271;22630;-66
2022/09/01 09:33:09;;;;;;;4.20;0.60;;;;;;;17.80;68.23;100870.32;105538;1272;22632;-67
2022/09/01 09:35:43;;;;;;;2.10;0.40;;;;;;;17.84;68.02;100868.48;105731;1272;22545;-67
2022/09/01 09:38:27;;;;;;;3.80;0.40;;;;;;;17.88;67.54;100870.79;105688;1271;23299;-67
2022/09/01 09:41:02;;;;;;;1.50;0.30;;;;;;;17.95;66.72;100867.80;105398;1273;22567;-67
2022/09/01 09:43:37;;;;;;;2.50;0.40;;;;;;;18.01;66.43;100866.77;105778;1271;24277;-67
2022/09/01 09:46:35;;;;;;;15.10;1.70;;;;;;;18.09;65.44;100862.34;105998;1271;24426;-67
2022/09/01 09:49:23;;;;;;;11.00;2.20;;;;;;;18.20;65.57;100859.96;105620;1272;22597;-67
2022/09/01 09:51:57;;;;;;;4.80;0.60;;;;;;;18.30;65.29;100860.95;105830;1273;22569;-66
2022/09/01 09:54:31;;;;;;;9.60;1.40;;;;;;;18.38;64.42;100862.05;106094;1273;24323;-67
2022/09/01 09:57:12;;;;;;;7.10;1.00;;;;;;;18.43;63.84;100857.14;105706;1272;22818;-66
2022/09/01 09:59:46;;;;;;;2.20;0.40;;;;;;;18.48;63.42;100859.14;105804;1271;25363;-67
2022/09/01 10:02:27;;;;;;;3.80;0.40;;;;;;;18.54;62.93;100854.13;105779;1271;22624;-67
2022/09/01 10:05:00;;;;;;;1.30;0.20;;;;;;;18.60;62.97;100852.55;105912;1271;25655;-67
2022/09/01 10:07:35;;;;;;;3.20;0.40;;;;;;;18.68;62.62;100851.39;105809;1271;25372;-66
2022/09/01 10:10:27;;;;;;;2.30;0.20;;;;;;;18.76;61.18;100852.27;105824;1271;22564;-66
2022/09/01 10:13:00;;;;;;;0.90;0.20;;;;;;;18.83;61.08;100846.65;105618;1271;25788;-66
2022/09/01 10:15:34;;;;;;;1.40;0.10;;;;;;;18.90;60.38;100854.07;106088;1271;23507;-67
2022/09/01 10:18:13;;;;;;;3.50;0.30;;;;;;;18.93;60.26;100847.48;106013;1271;24278;-68
2022/09/01 10:20:52;;;;;;;3.40;0.10;;;;;;;18.91;60.02;100852.41;105655;1271;25534;-67
2022/09/01 10:23:26;;;;;;;1.90;0.10;;;;;;;18.88;59.51;100850.27;105499;1273;25324;-67
2022/09/01 10:26:05;;;;;;;1.50;0.20;;;;;;;18.79;58.04;100851.45;105782;1271;24501;-67
2022/09/01 10:28:46;;;;;;;1.40;0.20;;;;;;;18.69;57.94;100850.62;105577;1271;22574;-66
2022/09/01 10:31:20;;;;;;;2.30;0.30;;;;;;;18.62;58.21;100847.41;106017;1271;22533;-67
2022/09/01 10:33:52;;;;;;;0.90;0.20;;;;;;;18.64;57.56;100843.59;106387;1271;22713;-67
2022/09/01 10:36:24;;;;;;;3.20;0.20;;;;;;;18.72;57.96;100843.41;105675;1271;24325;-67
2022/09/01 10:38:56;;;;;;;0.60;0.10;;;;;;;18.80;57.29;100843.37;105900;1271;22580;-68
2022/09/01 10:41:50;;;;;;;1.60;0.10;;;;;;;18.85;56.62;100845.45;105755;1271;23569;-68
2022/09/01 10:44:25;;;;;;;0.80;0.10;;;;;;;18.93;56.58;100843.82;105544;1273;22666;-67
2022/09/01 10:46:57;;;;;;;2.30;0.20;;;;;;;18.99;54.81;100846.98;105827;1271;25351;-67
2022/09/01 10:50:05;;;;;;;3.40;0.20;;;;;;;19.07;55.19;100851.09;105846;1271;22731;-68
2022/09/01 10:53:08;;;;;;;1.50;0.10;;;;;;;19.10;54.60;100851.17;105753;1271;24329;-68
2022/09/01 10:56:03;;;;;;;2.00;0.10;;;;;;;19.09;53.95;100848.35;105278;1281;22620;-68
2022/09/01 10:59:00;;;;;;;2.00;0.10;;;;;;;19.12;52.78;100852.04;105253;1281;22587;-71
2022/09/01 11:02:06;;;;;;;0.70;0.10;;;;;;;19.10;52.60;100849.33;105350;1278;22716;-68
2022/09/01 11:05:12;;;;;;;1.60;0.10;;;;;;;19.06;52.57;100850.83;105237;1281;22772;-67
2022/09/01 11:07:45;;;;;;;1.50;0.10;;;;;;;19.05;51.77;100850.48;105605;1277;22574;-68
2022/09/01 11:10:41;;;;;;;1.30;0.20;;;;;;;19.06;51.49;100845.13;105378;1281;22607;-67
2022/09/01 11:13:36;;;;;;;0.80;0.10;;;;;;;19.03;51.84;100846.39;105467;1278;22534;-67
2022/09/01 11:16:40;;;;;;;2.20;0.20;;;;;;;19.04;51.37;100849.41;105439;1278;22768;-68
2022/09/01 11:19:37;;;;;;;3.40;0.10;;;;;;;19.04;51.53;100851.16;105451;1281;24272;-68
2022/09/01 11:22:19;;;;;;;2.50;0.20;;;;;;;19.04;51.03;100844.21;104915;1284;22576;-67
2022/09/01 11:25:05;;;;;;;0.90;0.20;;;;;;;19.03;49.83;100850.14;104922;1284;25632;-67
2022/09/01 11:28:22;;;;;;;1.10;0.20;;;;;;;19.01;49.92;100844.54;105251;1281;22558;-68
2022/09/01 11:30:57;;;;;;;2.40;0.20;;;;;;;19.05;49.98;100846.36;104105;1290;22595;-68
2022/09/01 11:33:45;;;;;;;1.70;0.10;;;;;;;19.09;49.71;100845.98;104119;1290;22707;-68
2022/09/01 11:36:24;;;;;;;0.30;0.10;;;;;;;19.09;50.12;100842.06;106792;1290;24297;-68
2022/09/01 11:39:04;;;;;;;0.70;0.10;;;;;;;19.10;49.78;100840.56;106292;1289;24253;-71
2022/09/01 11:41:36;;;;;;;;;;;;;;;19.14;50.03;100846.46;104102;1290;22566;-68
2022/09/01 11:44:18;;;;;;;0.80;0.10;;;;;;;19.14;49.19;100840.61;104167;1290;22720;-67
2022/09/01 11:46:54;;;;;;;3.10;0.30;;;;;;;19.14;49.98;100838.55;104111;1290;22771;-68
2022/09/01 11:49:34;;;;;;;0.90;0.20;;;;;;;19.20;49.89;100843.64;103966;1290;22544;-68
2022/09/01 11:52:06;;;;;;;1.30;0.10;;;;;;;19.19;49.69;100841.44;104472;1290;25515;-67
2022/09/01 11:54:42;;;;;;;2.30;0.10;;;;;;;19.16;49.95;100839.36;107793;1289;22495;-68
2022/09/01 11:57:22;;;;;;;1.60;0.10;;;;;;;19.15;49.19;100839.26;107792;1289;24002;-68
2022/09/01 11:59:54;;;;;;;1.30;0.10;;;;;;;19.16;48.45;100836.95;108119;1284;22530;-69
2022/09/01 12:02:30;;;;;;;1.40;0.10;;;;;;;19.18;48.70;100833.17;108715;1280;22447;-69